Time;durP1;ratioP1;P1;durP2;ratioP2;P2;SDS_P1;SDS_P2;PMS_P1;PMS_P2;Temp;Humidity;BMP_temperature;BMP_pressure;BME280_temperature;BME280_humidity;BME280_pressure;Samples;Min_cycle;Max_cycle;Signal;HPM_P1;HPM_P2
2023/07/03 00:00:18;;;;;;;25.90;15.93;;;;;;;18.67;51.09;96002.91;5045737;28;20202;-68
2023/07/03 00:02:46;;;;;;;23.30;15.00;;;;;;;18.65;51.20;96001.34;5046019;28;20711;-69
2023/07/03 00:05:12;;;;;;;26.37;14.47;;;;;;;18.54;51.96;96007.53;5045388;28;20503;-69
2023/07/03 00:07:38;;;;;;;19.40;15.13;;;;;;;18.57;51.78;96009.97;5045615;28;20401;-69
2023/07/03 00:10:05;;;;;;;37.30;16.07;;;;;;;18.46;52.37;96016.13;5045687;28;20488;-69
2023/07/03 00:12:31;;;;;;;18.33;13.70;;;;;;;18.37;52.36;96012.41;5045822;28;20407;-69
2023/07/03 00:14:57;;;;;;;18.33;14.50;;;;;;;18.27;52.97;96010.63;5045378;28;20468;-69
2023/07/03 00:17:22;;;;;;;23.63;15.60;;;;;;;18.34;52.73;96015.31;5045569;28;20401;-67
2023/07/03 00:19:48;;;;;;;22.20;15.83;;;;;;;18.17;53.20;96013.19;5045396;28;20996;-68
2023/07/03 00:22:13;;;;;;;20.13;15.87;;;;;;;18.24;53.37;96011.72;5045348;28;20190;-68
2023/07/03 00:24:38;;;;;;;16.97;13.73;;;;;;;18.25;53.09;96009.91;5045153;28;20210;-68
2023/07/03 00:27:04;;;;;;;21.70;15.80;;;;;;;18.26;53.22;96012.47;5045594;28;20257;-69
2023/07/03 00:29:31;;;;;;;30.47;15.77;;;;;;;18.22;53.20;96018.97;5045482;28;20167;-69
2023/07/03 00:31:58;;;;;;;19.40;14.37;;;;;;;18.21;53.15;96019.94;5045588;28;20182;-65
2023/07/03 00:34:23;;;;;;;21.10;16.50;;;;;;;18.22;53.49;96023.44;5044333;28;20440;-67
2023/07/03 00:36:49;;;;;;;23.27;16.80;;;;;;;18.13;53.55;96020.56;5051028;28;20412;-67
2023/07/03 00:39:14;;;;;;;20.00;14.73;;;;;;;18.20;53.74;96011.13;5050229;28;20167;-68
2023/07/03 00:41:41;;;;;;;22.40;14.53;;;;;;;18.19;53.89;96014.75;5051689;28;20698;-69
2023/07/03 00:44:14;;;;;;;28.77;16.27;;;;;;;18.20;53.91;96015.59;5049597;28;20207;-67
2023/07/03 00:46:42;;;;;;;19.90;15.70;;;;;;;18.12;54.23;96023.34;5052147;28;20404;-68
2023/07/03 00:49:09;;;;;;;22.13;15.00;;;;;;;18.04;54.23;96017.78;5051348;28;20444;-69
2023/07/03 00:51:37;;;;;;;27.30;16.00;;;;;;;18.16;54.00;96014.16;5049770;28;20966;-68
2023/07/03 00:54:02;;;;;;;18.47;15.20;;;;;;;18.09;53.93;96026.22;5049557;28;20466;-69
2023/07/03 00:56:28;;;;;;;24.43;15.43;;;;;;;18.05;53.52;96022.13;5049731;28;20529;-69
2023/07/03 00:58:53;;;;;;;19.30;14.30;;;;;;;18.10;53.25;96022.63;5049949;28;20202;-68
2023/07/03 01:01:38;;;;;;;18.17;15.30;;;;;;;18.09;53.27;96021.75;5049378;28;20687;-69
2023/07/03 01:04:10;;;;;;;23.47;13.90;;;;;;;18.07;53.35;96014.88;5048741;28;20296;-69
2023/07/03 01:06:40;;;;;;;22.03;14.90;;;;;;;18.15;52.61;96008.00;5048917;28;20450;-67
2023/07/03 01:09:08;;;;;;;22.10;14.30;;;;;;;18.22;52.61;96005.69;5048786;28;20413;-69
2023/07/03 01:11:35;;;;;;;26.77;15.07;;;;;;;18.21;52.45;96004.00;5048888;28;20728;-67
2023/07/03 01:14:01;;;;;;;29.87;14.97;;;;;;;18.20;52.50;96002.31;5048676;28;21226;-69
2023/07/03 01:16:30;;;;;;;19.03;14.30;;;;;;;18.10;52.81;96002.22;5049381;28;20448;-69
2023/07/03 01:18:57;;;;;;;17.30;14.23;;;;;;;18.15;52.29;95999.19;5047445;28;20425;-67
2023/07/03 01:21:31;;;;;;;25.50;17.03;;;;;;;18.14;52.56;95998.34;5048736;28;20412;-69
2023/07/03 01:24:14;;;;;;;37.20;14.93;;;;;;;18.15;52.58;95993.88;5048228;28;20457;-69
2023/07/03 01:26:43;;;;;;;27.90;16.40;;;;;;;18.23;52.51;96004.72;5048475;28;20478;-69
2023/07/03 01:29:10;;;;;;;23.43;15.77;;;;;;;18.30;52.04;95999.75;5048930;28;20966;-66
2023/07/03 01:31:37;;;;;;;25.13;14.20;;;;;;;18.20;52.47;95995.19;5048741;28;20420;-70
2023/07/03 01:34:05;;;;;;;23.10;14.77;;;;;;;18.33;52.24;95991.53;5048137;28;20401;-67
2023/07/03 01:36:31;;;;;;;19.13;13.47;;;;;;;18.36;51.97;95994.78;5048623;28;20808;-68
2023/07/03 01:39:27;;;;;;;18.93;15.37;;;;;;;18.35;51.89;95998.44;5681266;22;21257;-67
2023/07/03 01:41:55;;;;;;;31.70;14.97;;;;;;;18.38;51.93;95995.50;5032459;28;20492;-69
2023/07/03 01:44:20;;;;;;;38.17;14.97;;;;;;;18.37;51.95;96000.94;5028107;28;21205;-66
2023/07/03 01:46:45;;;;;;;46.67;19.20;;;;;;;18.22;52.83;95996.88;5008346;28;20422;-67
2023/07/03 01:49:15;;;;;;;20.07;14.50;;;;;;;18.24;52.88;95994.97;5045348;28;20202;-68
2023/07/03 01:51:58;;;;;;;23.83;15.57;;;;;;;18.23;53.51;95993.25;5047928;28;20247;-68
2023/07/03 01:54:58;;;;;;;24.30;15.57;;;;;;;18.16;53.52;95995.56;5048128;28;20422;-68
2023/07/03 01:57:29;;;;;;;20.70;13.67;;;;;;;18.08;54.03;95993.53;5031303;28;20419;-68
2023/07/03 01:59:58;;;;;;;19.47;15.23;;;;;;;18.07;53.93;95993.63;5027524;28;20525;-66
2023/07/03 02:02:29;;;;;;;20.30;14.83;;;;;;;18.14;53.73;96002.78;5027972;28;20505;-67
2023/07/03 02:04:57;;;;;;;20.10;13.23;;;;;;;18.03;53.81;95993.06;5032272;28;20464;-68
2023/07/03 02:07:26;;;;;;;26.03;15.30;;;;;;;18.09;54.02;95992.53;5027778;28;20845;-68
2023/07/03 02:09:51;;;;;;;21.63;15.13;;;;;;;17.87;54.10;95992.59;5009263;28;20434;-68
2023/07/03 02:12:17;;;;;;;19.27;16.00;;;;;;;17.85;53.93;95995.34;5027743;28;20425;-69
2023/07/03 02:14:43;;;;;;;22.17;14.60;;;;;;;17.91;53.95;95991.38;5027604;28;20174;-69
2023/07/03 02:17:08;;;;;;;20.03;14.13;;;;;;;17.86;53.77;95989.09;5027531;28;20410;-66
2023/07/03 02:19:34;;;;;;;21.00;14.20;;;;;;;17.85;54.12;95990.03;5027569;28;20292;-66
2023/07/03 02:22:00;;;;;;;18.67;14.07;;;;;;;17.90;53.47;95987.03;5028088;28;20176;-69
2023/07/03 02:24:26;;;;;;;23.93;15.30;;;;;;;17.95;53.58;95993.69;5027864;28;20206;-67
2023/07/03 02:26:52;;;;;;;25.90;14.53;;;;;;;17.85;53.74;95995.34;5027539;28;20477;-67
2023/07/03 02:29:18;;;;;;;24.50;15.70;;;;;;;17.99;53.37;95987.13;5024990;28;20434;-69
2023/07/03 02:31:43;;;;;;;23.63;14.17;;;;;;;17.95;53.52;95980.41;5033260;28;21308;-67
2023/07/03 02:34:09;;;;;;;23.23;15.53;;;;;;;17.96;53.53;95997.16;5031227;28;20238;-68
2023/07/03 02:36:36;;;;;;;26.60;14.90;;;;;;;17.87;53.85;95987.28;5046949;28;20232;-69
2023/07/03 02:39:04;;;;;;;31.40;16.07;;;;;;;17.82;54.28;95986.81;5046504;28;20202;-68
2023/07/03 02:41:30;;;;;;;24.23;14.40;;;;;;;17.80;54.13;95986.06;5046811;28;20429;-68
2023/07/03 02:43:55;;;;;;;36.73;17.30;;;;;;;17.80;54.38;95991.34;5023320;28;20748;-66
2023/07/03 02:46:20;;;;;;;24.37;15.23;;;;;;;17.83;54.59;95994.63;5040744;28;20286;-68
2023/07/03 02:48:46;;;;;;;34.93;16.20;;;;;;;17.80;54.63;95994.00;5028761;28;20171;-68
2023/07/03 02:51:11;;;;;;;26.90;15.30;;;;;;;17.77;54.51;95993.28;5026779;28;20664;-67
2023/07/03 02:53:37;;;;;;;38.20;17.10;;;;;;;17.78;53.99;95994.97;5027138;28;20206;-68
2023/07/03 02:56:02;;;;;;;36.67;15.70;;;;;;;17.76;54.35;95993.41;5028628;28;20172;-68
2023/07/03 02:58:28;;;;;;;46.70;17.40;;;;;;;17.76;54.96;95991.63;5027610;28;20892;-67
2023/07/03 03:00:54;;;;;;;27.93;15.80;;;;;;;17.74;55.47;95990.88;5027911;28;20548;-69
2023/07/03 03:03:19;;;;;;;59.40;18.17;;;;;;;17.70;56.12;95991.25;5026956;28;20615;-67
2023/07/03 03:05:45;;;;;;;33.03;15.87;;;;;;;17.70;56.74;95999.22;5026567;28;20533;-68
2023/07/03 03:08:11;;;;;;;60.33;19.07;;;;;;;17.68;56.98;96001.13;5025686;28;20246;-66
2023/07/03 03:10:37;;;;;;;43.10;17.60;;;;;;;17.63;57.28;95995.34;5025230;28;20933;-68
2023/07/03 03:13:02;;;;;;;29.50;16.73;;;;;;;17.61;57.13;95989.31;5026304;28;20442;-68
2023/07/03 03:15:29;;;;;;;23.23;16.13;;;;;;;17.66;56.78;95995.94;5026262;28;20294;-69
2023/07/03 03:17:55;;;;;;;26.33;14.60;;;;;;;17.70;56.32;95992.09;5026407;28;20175;-65
2023/07/03 03:20:20;;;;;;;21.10;15.27;;;;;;;17.78;55.88;95994.13;5026271;28;20430;-68
2023/07/03 03:22:46;;;;;;;24.57;14.60;;;;;;;17.81;56.17;96001.91;5026492;28;20200;-68
2023/07/03 03:25:11;;;;;;;19.87;14.50;;;;;;;17.74;55.94;95997.97;5026555;28;20175;-68
2023/07/03 03:27:36;;;;;;;20.50;16.33;;;;;;;17.66;56.21;96000.41;5026571;28;20183;-68
2023/07/03 03:30:03;;;;;;;19.67;14.17;;;;;;;17.64;55.88;96002.34;5026012;28;20226;-67
2023/07/03 03:32:29;;;;;;;38.63;16.17;;;;;;;17.59;56.27;96004.50;5029896;28;20554;-68
2023/07/03 03:34:55;;;;;;;28.57;16.40;;;;;;;17.62;55.93;95996.28;5034063;28;20411;-67
2023/07/03 03:37:21;;;;;;;21.43;14.40;;;;;;;17.50;56.09;95998.97;5027176;28;20410;-66
2023/07/03 03:39:46;;;;;;;21.40;15.17;;;;;;;17.60;56.41;95998.22;5025734;28;20282;-69
2023/07/03 03:42:12;;;;;;;49.20;17.77;;;;;;;17.59;56.24;95999.19;5026031;28;20257;-67
2023/07/03 03:44:38;;;;;;;38.50;20.30;;;;;;;17.61;56.40;95992.81;5025627;28;20551;-68
2023/07/03 03:47:04;;;;;;;39.83;17.07;;;;;;;17.64;56.69;95994.38;5029499;28;20178;-66
2023/07/03 03:49:29;;;;;;;25.83;15.70;;;;;;;17.60;57.11;96001.75;5045406;28;20425;-68
2023/07/03 03:51:55;;;;;;;23.67;15.43;;;;;;;17.67;57.12;95999.44;5045599;28;20175;-66
2023/07/03 03:54:20;;;;;;;63.80;17.50;;;;;;;17.80;56.45;96004.63;5045537;28;20173;-68
2023/07/03 03:56:46;;;;;;;57.93;19.40;;;;;;;17.78;56.72;96010.06;5045338;28;20229;-66
2023/07/03 03:59:11;;;;;;;32.80;15.90;;;;;;;17.84;56.68;96004.31;5045167;28;20195;-66
2023/07/03 04:01:37;;;;;;;34.50;16.33;;;;;;;17.72;56.68;96007.91;5045669;28;20202;-68
2023/07/03 04:04:02;;;;;;;33.17;15.50;;;;;;;17.69;57.03;96008.13;5045827;28;20265;-67
2023/07/03 04:06:28;;;;;;;40.30;17.07;;;;;;;17.69;57.42;96008.13;5045968;28;20650;-68
2023/07/03 04:08:54;;;;;;;24.50;16.90;;;;;;;17.75;57.08;96005.84;5044863;28;20274;-66
2023/07/03 04:11:20;;;;;;;23.70;15.27;;;;;;;17.81;57.21;96001.91;5045617;28;20262;-69
2023/07/03 04:13:45;;;;;;;26.90;18.40;;;;;;;17.78;57.36;96004.75;5045384;28;20421;-68
2023/07/03 04:16:12;;;;;;;22.73;17.00;;;;;;;17.82;57.09;96013.34;5041101;28;20422;-67
2023/07/03 04:18:38;;;;;;;28.80;15.77;;;;;;;17.84;57.13;96006.94;5025052;28;20178;-67
2023/07/03 04:21:04;;;;;;;55.40;18.67;;;;;;;17.76;57.26;96011.97;5025006;28;20496;-67
2023/07/03 04:23:29;;;;;;;45.53;18.10;;;;;;;17.79;57.16;96006.44;5025052;28;20993;-70
2023/07/03 04:25:54;;;;;;;41.57;18.50;;;;;;;17.82;56.78;96003.56;5010833;28;20179;-66
2023/07/03 04:28:22;;;;;;;39.07;16.80;;;;;;;17.80;56.91;96005.47;5021079;28;20688;-66
2023/07/03 04:30:48;;;;;;;27.27;16.43;;;;;;;17.63;57.41;96005.97;5022921;28;20199;-69
2023/07/03 04:33:14;;;;;;;45.50;17.50;;;;;;;17.85;56.72;96011.28;5024377;28;20905;-68
2023/07/03 04:35:40;;;;;;;30.43;15.90;;;;;;;17.91;56.63;96010.81;5019655;28;20430;-69
2023/07/03 04:38:05;;;;;;;25.27;17.27;;;;;;;17.84;56.74;96017.56;5024918;28;21077;-66
2023/07/03 04:40:31;;;;;;;28.23;16.20;;;;;;;18.01;56.10;96023.34;5024238;28;20195;-67
2023/07/03 04:42:57;;;;;;;56.70;18.87;;;;;;;17.87;56.84;96019.13;5025337;28;20287;-68
2023/07/03 04:45:24;;;;;;;35.00;17.60;;;;;;;17.88;56.61;96021.69;5025498;28;20226;-68
2023/07/03 04:47:51;;;;;;;37.73;18.33;;;;;;;17.96;56.29;96021.06;5033055;28;20592;-68
2023/07/03 04:50:17;;;;;;;35.63;17.47;;;;;;;18.09;56.10;96012.94;5024812;28;20444;-67
2023/07/03 04:52:43;;;;;;;22.20;15.60;;;;;;;18.11;55.44;96013.69;5025300;28;20438;-68
2023/07/03 04:55:11;;;;;;;33.43;16.97;;;;;;;18.16;55.02;96022.94;5025290;28;20472;-68
2023/07/03 04:57:38;;;;;;;43.63;18.80;;;;;;;18.04;54.75;96028.41;5025094;28;20437;-67
2023/07/03 05:00:17;;;;;;;41.70;16.87;;;;;;;18.13;54.46;96033.00;5024786;28;20607;-67
2023/07/03 05:02:49;;;;;;;33.77;16.33;;;;;;;18.21;54.09;96025.25;5025395;28;20491;-69
2023/07/03 05:05:16;;;;;;;35.40;16.63;;;;;;;18.19;53.88;96019.22;5024983;28;21065;-68
2023/07/03 05:07:43;;;;;;;28.97;15.77;;;;;;;18.20;53.57;96039.50;5025188;28;20422;-70
2023/07/03 05:10:10;;;;;;;21.90;15.30;;;;;;;18.17;53.87;96034.44;5024634;28;20478;-70
2023/07/03 05:12:36;;;;;;;39.37;18.07;;;;;;;18.09;54.17;96039.50;5025059;28;20569;-70
2023/07/03 05:15:03;;;;;;;51.80;17.43;;;;;;;18.09;54.26;96035.03;5019525;28;20432;-70
2023/07/03 05:17:29;;;;;;;30.03;14.90;;;;;;;18.03;54.14;96032.88;5023656;28;20422;-71
2023/07/03 05:19:55;;;;;;;24.27;15.80;;;;;;;18.21;53.56;96030.56;5024883;28;20982;-71
2023/07/03 05:22:21;;;;;;;27.50;15.10;;;;;;;18.11;53.35;96034.91;5028565;28;20187;-71
2023/07/03 05:24:49;;;;;;;35.00;15.27;;;;;;;18.13;53.56;96036.47;5031916;28;20466;-69
2023/07/03 05:27:15;;;;;;;38.10;16.50;;;;;;;18.09;53.72;96031.53;5029000;28;20429;-72
2023/07/03 05:29:40;;;;;;;53.90;19.43;;;;;;;18.13;53.61;96027.69;5024470;28;20434;-72
2023/07/03 05:32:06;;;;;;;34.83;15.30;;;;;;;18.13;53.49;96028.53;5028805;28;20258;-73
2023/07/03 05:34:33;;;;;;;30.80;14.50;;;;;;;18.20;53.00;96034.19;5028506;28;20170;-71
2023/07/03 05:36:59;;;;;;;29.27;14.77;;;;;;;18.24;52.95;96042.78;5011221;28;20183;-73
2023/07/03 05:39:24;;;;;;;27.03;14.53;;;;;;;18.23;53.31;96038.41;5013872;28;20441;-73
2023/07/03 05:41:50;;;;;;;21.90;15.00;;;;;;;18.21;53.26;96038.50;5028613;28;20179;-71
2023/07/03 05:44:15;;;;;;;24.63;14.80;;;;;;;18.33;53.45;96049.97;5023510;28;20204;-73
2023/07/03 05:46:41;;;;;;;24.07;15.23;;;;;;;18.57;52.71;96040.03;5027510;28;20255;-71
2023/07/03 05:49:06;;;;;;;24.83;15.13;;;;;;;18.64;52.55;96045.69;5027888;28;20228;-71
2023/07/03 05:51:31;;;;;;;26.63;13.83;;;;;;;18.63;52.85;96054.63;5027801;28;20858;-72
2023/07/03 05:53:57;;;;;;;21.30;15.33;;;;;;;18.53;53.15;96049.22;5026048;28;20176;-72
2023/07/03 05:56:22;;;;;;;21.93;14.30;;;;;;;18.44;53.51;96052.63;5024975;28;20589;-71
2023/07/03 05:58:48;;;;;;;27.00;14.97;;;;;;;18.48;53.42;96050.56;5027689;28;20258;-71
2023/07/03 06:01:13;;;;;;;20.03;15.33;;;;;;;18.56;52.99;96051.59;5014283;28;20180;-71
2023/07/03 06:03:42;;;;;;;24.50;15.87;;;;;;;18.64;52.71;96056.31;5014432;28;20207;-70
2023/07/03 06:06:08;;;;;;;32.20;15.77;;;;;;;18.51;53.18;96051.16;5028187;28;20203;-69
2023/07/03 06:08:34;;;;;;;28.87;15.77;;;;;;;18.51;53.21;96047.66;5027587;28;20414;-71
2023/07/03 06:10:59;;;;;;;26.77;15.77;;;;;;;18.49;53.61;96052.25;5027073;28;20203;-69
2023/07/03 06:13:24;;;;;;;24.17;14.60;;;;;;;18.64;53.09;96045.69;5028143;28;20274;-71
2023/07/03 06:15:50;;;;;;;31.47;14.40;;;;;;;18.54;53.49;96053.56;5010262;28;20176;-69
2023/07/03 06:18:15;;;;;;;27.73;15.63;;;;;;;18.69;53.33;96050.63;5009798;28;20266;-70
2023/07/03 06:20:41;;;;;;;20.67;13.90;;;;;;;18.68;53.54;96051.59;5027202;28;20254;-70
2023/07/03 06:23:06;;;;;;;34.63;15.70;;;;;;;18.71;53.23;96052.19;5027442;28;20188;-71
2023/07/03 06:25:32;;;;;;;44.07;16.17;;;;;;;18.75;53.07;96048.28;5028215;28;20175;-71
2023/07/03 06:27:58;;;;;;;26.67;13.33;;;;;;;18.76;52.99;96047.38;5028041;28;20198;-72
2023/07/03 06:30:23;;;;;;;21.77;13.33;;;;;;;18.85;52.55;96050.22;5027693;28;20179;-69
2023/07/03 06:32:48;;;;;;;30.43;14.77;;;;;;;19.06;51.76;96051.09;5026262;28;20170;-70
2023/07/03 06:35:14;;;;;;;29.60;15.30;;;;;;;19.22;51.10;96053.31;5027338;28;20713;-69
2023/07/03 06:37:40;;;;;;;41.60;17.00;;;;;;;19.36;50.25;96052.16;5027342;28;20167;-68
2023/07/03 06:40:14;;;;;;;44.53;15.43;;;;;;;19.42;49.93;96055.16;5027256;28;20287;-70
2023/07/03 06:42:40;;;;;;;26.97;14.17;;;;;;;19.55;49.69;96062.09;5027295;28;20187;-70
2023/07/03 06:45:06;;;;;;;22.30;12.90;;;;;;;19.63;49.00;96065.78;5027486;28;20472;-71
2023/07/03 06:47:31;;;;;;;19.73;12.93;;;;;;;19.65;48.25;96062.97;5034460;28;20194;-69
2023/07/03 06:49:57;;;;;;;27.27;11.97;;;;;;;19.65;47.83;96062.97;5046387;28;20427;-69
2023/07/03 06:52:22;;;;;;;30.83;14.30;;;;;;;19.67;48.14;96069.00;5046650;28;20220;-68
2023/07/03 06:54:48;;;;;;;15.67;11.80;;;;;;;19.90;47.51;96064.41;5046481;28;20186;-70
2023/07/03 06:57:13;;;;;;;24.53;12.20;;;;;;;19.98;47.02;96069.91;5046204;28;20770;-72
2023/07/03 06:59:38;;;;;;;21.67;11.80;;;;;;;19.97;47.47;96059.41;5045998;28;20197;-70
2023/07/03 07:02:05;;;;;;;23.97;12.30;;;;;;;20.18;47.09;96059.34;5011689;28;20180;-70
2023/07/03 07:04:31;;;;;;;19.80;12.20;;;;;;;20.45;46.50;96064.88;5007034;28;20677;-69
2023/07/03 07:06:56;;;;;;;24.30;12.03;;;;;;;20.44;46.55;96055.22;5006851;28;20404;-70
2023/07/03 07:09:22;;;;;;;30.10;13.03;;;;;;;20.35;46.51;96058.69;5006557;28;20195;-70
2023/07/03 07:11:47;;;;;;;25.37;11.50;;;;;;;20.39;46.57;96056.63;5007624;28;20173;-68
2023/07/03 07:14:13;;;;;;;25.23;11.83;;;;;;;20.43;46.39;96058.88;5013657;28;20167;-70
2023/07/03 07:16:40;;;;;;;18.73;11.33;;;;;;;20.44;46.24;96047.22;5026628;28;20238;-70
2023/07/03 07:19:08;;;;;;;15.93;11.03;;;;;;;20.42;46.84;96057.16;5026250;28;20183;-70
2023/07/03 07:21:36;;;;;;;17.87;10.80;;;;;;;20.69;46.16;96058.38;5026688;28;20407;-69
2023/07/03 07:24:17;;;;;;;15.90;11.67;;;;;;;20.76;46.07;96051.50;5015076;28;20911;-68
2023/07/03 07:26:42;;;;;;;24.53;11.20;;;;;;;20.69;46.25;96061.03;5039248;28;20418;-69
2023/07/03 07:29:08;;;;;;;23.83;12.37;;;;;;;20.61;46.24;96058.22;5006154;28;20548;-70
2023/07/03 07:31:36;;;;;;;17.67;11.33;;;;;;;20.80;46.08;96050.25;5007828;28;21013;-69
2023/07/03 07:34:04;;;;;;;28.57;12.50;;;;;;;20.93;45.97;96052.66;5006478;28;20168;-70
2023/07/03 07:36:30;;;;;;;27.77;12.30;;;;;;;21.12;45.45;96049.16;5006327;28;21288;-70
2023/07/03 07:38:55;;;;;;;21.27;10.63;;;;;;;21.19;45.11;96047.59;5005870;28;20522;-70
2023/07/03 07:41:21;;;;;;;21.43;11.10;;;;;;;21.21;45.04;96052.78;5006202;28;20451;-70
2023/07/03 07:43:50;;;;;;;16.30;11.10;;;;;;;21.19;44.99;96046.72;5006863;28;20200;-70
2023/07/03 07:46:16;;;;;;;16.17;10.40;;;;;;;21.30;44.81;96050.09;5006307;28;20207;-68
2023/07/03 07:48:42;;;;;;;20.73;10.90;;;;;;;21.53;43.73;96042.66;5039474;28;20417;-69
2023/07/03 07:51:09;;;;;;;14.10;9.77;;;;;;;21.83;43.53;96038.09;5045744;28;20198;-70
2023/07/03 07:53:35;;;;;;;21.63;10.13;;;;;;;21.78;43.11;96046.53;5045847;28;20167;-69
2023/07/03 07:56:00;;;;;;;21.33;9.73;;;;;;;21.92;43.31;96044.38;5045518;28;20409;-70
2023/07/03 07:58:26;;;;;;;26.13;11.63;;;;;;;22.22;42.80;96042.47;5014642;28;20191;-70
2023/07/03 08:00:53;;;;;;;22.00;12.17;;;;;;;22.40;42.49;96043.34;5012382;28;20198;-70
2023/07/03 08:03:19;;;;;;;26.07;10.90;;;;;;;22.77;41.43;96039.72;5025888;28;21075;-69
2023/07/03 08:05:44;;;;;;;20.27;10.20;;;;;;;22.65;41.37;96035.59;5025439;28;20422;-70
2023/07/03 08:08:09;;;;;;;22.53;10.57;;;;;;;22.77;40.90;96037.91;5025020;28;20191;-69
2023/07/03 08:10:35;;;;;;;11.90;8.23;;;;;;;23.33;39.66;96032.41;5024735;28;20187;-69
2023/07/03 08:13:00;;;;;;;20.57;9.67;;;;;;;23.58;38.59;96030.75;5024740;28;20163;-70
2023/07/03 08:15:26;;;;;;;44.50;11.83;;;;;;;23.78;37.92;96031.41;5014842;28;20172;-71
2023/07/03 08:17:52;;;;;;;33.20;10.90;;;;;;;23.96;37.59;96029.50;5020960;28;20176;-70
2023/07/03 08:20:17;;;;;;;18.87;10.07;;;;;;;24.12;36.93;96020.72;5028587;28;20213;-70
2023/07/03 08:22:43;;;;;;;15.37;8.80;;;;;;;24.14;37.73;96020.53;5023414;28;20174;-70
2023/07/03 08:25:12;;;;;;;25.23;9.50;;;;;;;24.28;36.91;96018.13;5019196;28;20175;-70
2023/07/03 08:27:37;;;;;;;14.07;10.10;;;;;;;24.66;36.06;96015.91;5036466;28;20556;-71
2023/07/03 08:30:04;;;;;;;15.60;8.17;;;;;;;24.64;36.04;96015.22;5011707;28;20447;-70
2023/07/03 08:32:30;;;;;;;24.83;10.20;;;;;;;24.81;35.63;96017.97;5023026;28;20179;-70
2023/07/03 08:34:55;;;;;;;11.90;8.57;;;;;;;24.90;35.72;96012.44;5025190;28;20418;-70
2023/07/03 08:37:21;;;;;;;14.50;9.03;;;;;;;24.97;35.38;96014.44;5025268;28;20584;-70
2023/07/03 08:39:47;;;;;;;19.13;9.90;;;;;;;24.80;35.67;96016.25;5023297;28;20199;-70
2023/07/03 08:42:21;;;;;;;15.13;8.60;;;;;;;24.46;36.63;96015.34;5025025;28;20418;-70
2023/07/03 08:44:46;;;;;;;12.47;8.10;;;;;;;24.09;37.78;96008.47;5012199;28;20318;-70
2023/07/03 08:47:19;;;;;;;17.77;10.40;;;;;;;24.07;37.64;96014.97;5014611;28;20410;-70
2023/07/03 08:49:46;;;;;;;30.63;11.87;;;;;;;23.88;37.66;96016.91;5026260;28;20215;-71
2023/07/03 08:52:17;;;;;;;27.63;10.43;;;;;;;23.72;38.17;96011.44;5005075;28;20927;-69
2023/07/03 08:54:44;;;;;;;17.77;9.10;;;;;;;23.47;38.33;96010.41;5005569;28;20403;-71
2023/07/03 08:57:11;;;;;;;16.40;8.70;;;;;;;23.32;38.75;96020.88;5025652;28;20428;-70
2023/07/03 08:59:37;;;;;;;24.20;10.80;;;;;;;23.24;38.74;96018.97;5048484;28;20425;-71
2023/07/03 09:02:16;;;;;;;17.87;9.43;;;;;;;23.19;38.84;96015.91;5049476;28;20488;-71
2023/07/03 09:05:01;;;;;;;34.37;11.47;;;;;;;23.06;38.90;96018.16;5028974;28;20199;-71
2023/07/03 09:07:50;;;;;;;38.37;12.30;;;;;;;23.32;38.26;96014.69;5013304;28;20486;-71
2023/07/03 09:10:22;;;;;;;14.60;9.00;;;;;;;23.56;37.20;96011.31;5009088;28;20522;-71
2023/07/03 09:12:53;;;;;;;21.20;9.27;;;;;;;23.83;36.39;96005.81;5009481;28;20459;-72
2023/07/03 09:15:28;;;;;;;15.00;8.03;;;;;;;24.17;34.94;96014.88;5009307;28;20429;-71
2023/07/03 09:17:58;;;;;;;21.93;9.10;;;;;;;24.04;35.41;96015.31;5009929;28;20466;-71
2023/07/03 09:20:24;;;;;;;10.80;7.57;;;;;;;24.22;34.78;96008.03;5008603;28;20551;-71
2023/07/03 09:22:59;;;;;;;17.33;8.20;;;;;;;24.38;34.03;96019.78;5008618;28;20411;-71
2023/07/03 09:25:36;;;;;;;13.90;8.63;;;;;;;24.32;34.13;96012.41;5008767;28;20457;-72
2023/07/03 09:28:04;;;;;;;16.47;8.07;;;;;;;24.15;34.09;96017.72;5009060;28;20422;-71
2023/07/03 09:30:29;;;;;;;66.43;14.90;;;;;;;24.03;34.31;96016.31;5008191;28;20433;-70
2023/07/03 09:32:55;;;;;;;53.63;13.27;;;;;;;24.12;33.79;96009.13;5009825;28;21285;-71
2023/07/03 09:35:22;;;;;;;24.27;9.10;;;;;;;24.16;33.69;96018.53;5022664;28;20207;-71
2023/07/03 09:37:58;;;;;;;9.43;6.97;;;;;;;23.94;33.61;96019.97;5028360;28;20171;-71
2023/07/03 09:40:33;;;;;;;15.60;7.60;;;;;;;23.84;33.70;96012.88;5027750;28;20433;-71
2023/07/03 09:43:00;;;;;;;11.97;6.60;;;;;;;23.94;33.45;96012.75;5028266;28;20441;-71
2023/07/03 09:45:33;;;;;;;15.13;7.60;;;;;;;23.93;33.28;96021.81;5028131;28;20409;-71
2023/07/03 09:48:01;;;;;;;11.27;6.53;;;;;;;23.75;33.20;96021.03;5020418;28;20585;-71
2023/07/03 09:50:31;;;;;;;15.00;8.17;;;;;;;23.77;33.50;96017.19;5019172;28;20448;-71
2023/07/03 09:52:58;;;;;;;12.63;7.70;;;;;;;23.95;33.24;96022.47;5028416;28;20818;-72
2023/07/03 09:55:25;;;;;;;14.77;6.97;;;;;;;24.13;32.74;96029.59;5028251;28;20417;-71
2023/07/03 09:57:50;;;;;;;11.93;8.07;;;;;;;24.04;32.27;96020.66;5029702;28;20441;-71
2023/07/03 10:00:20;;;;;;;14.37;6.93;;;;;;;24.08;32.11;96017.50;5034131;28;20441;-73
2023/07/03 10:02:45;;;;;;;18.30;7.27;;;;;;;24.06;31.95;96024.03;5028797;28;20180;-72
2023/07/03 10:05:19;;;;;;;19.30;9.93;;;;;;;23.98;32.05;96024.00;5038766;28;20446;-71
2023/07/03 10:07:46;;;;;;;17.07;7.77;;;;;;;24.36;31.99;96032.56;5036342;28;20210;-72
2023/07/03 10:10:17;;;;;;;24.63;7.40;;;;;;;24.63;31.60;96026.94;5013943;28;20445;-71
2023/07/03 10:12:52;;;;;;;22.63;9.23;;;;;;;24.87;31.16;96030.69;5007639;28;20493;-71
2023/07/03 10:15:25;;;;;;;12.90;6.83;;;;;;;24.87;31.09;96022.66;5021388;28;20433;-71
2023/07/03 10:17:56;;;;;;;11.00;7.60;;;;;;;24.73;31.69;96021.44;5026431;28;20414;-69
2023/07/03 10:20:26;;;;;;;21.37;7.50;;;;;;;24.82;31.00;96019.63;5027361;28;20484;-70
2023/07/03 10:22:53;;;;;;;23.77;7.57;;;;;;;24.79;31.46;96026.16;5027301;28;20517;-71
2023/07/03 10:25:27;;;;;;;20.77;8.10;;;;;;;24.61;31.29;96031.63;5027667;28;21054;-71
2023/07/03 10:27:57;;;;;;;16.50;7.67;;;;;;;24.45;31.33;96029.72;5027000;28;20433;-70
2023/07/03 10:30:24;;;;;;;12.00;7.50;;;;;;;24.30;32.01;96029.50;5027009;28;20426;-71
2023/07/03 10:32:53;;;;;;;11.30;7.43;;;;;;;24.21;32.09;96026.94;5027249;28;20421;-70
2023/07/03 10:35:27;;;;;;;14.10;6.97;;;;;;;24.38;31.81;96027.84;5027663;28;20410;-70
2023/07/03 10:38:05;;;;;;;19.70;9.20;;;;;;;24.38;31.90;96023.34;5027371;28;20446;-70
2023/07/03 10:40:56;;;;;;;12.87;7.03;;;;;;;24.66;31.68;96023.09;5026861;28;20477;-70
2023/07/03 10:43:27;;;;;;;8.97;7.20;;;;;;;24.88;31.35;96014.44;5028705;28;20462;-70
2023/07/03 10:45:54;;;;;;;13.80;7.80;;;;;;;24.72;31.85;96015.25;5027682;28;20410;-71
2023/07/03 10:48:25;;;;;;;12.63;7.10;;;;;;;24.50;31.31;96015.88;5041055;28;20409;-71
2023/07/03 10:51:03;;;;;;;16.20;8.13;;;;;;;24.67;31.91;96006.84;5046825;28;20417;-71
2023/07/03 10:53:41;;;;;;;15.53;7.47;;;;;;;24.67;31.86;96014.06;5046975;28;20805;-69
2023/07/03 10:56:16;;;;;;;15.93;7.23;;;;;;;24.74;31.28;96009.72;5046702;28;20401;-71
2023/07/03 10:59:05;;;;;;;14.30;7.40;;;;;;;24.67;31.59;96006.84;5047005;28;20494;-70
2023/07/03 11:01:44;;;;;;;14.07;7.03;;;;;;;24.55;32.01;96012.69;5046174;28;20528;-69
2023/07/03 11:04:21;;;;;;;13.30;7.37;;;;;;;24.59;31.85;96011.34;5046449;28;20804;-72
2023/07/03 11:06:49;;;;;;;16.40;8.33;;;;;;;24.55;31.95;96013.53;5046759;28;20407;-71
2023/07/03 11:09:23;;;;;;;19.83;7.93;;;;;;;24.59;32.12;96022.06;5028203;28;20433;-70
2023/07/03 11:11:54;;;;;;;16.50;7.07;;;;;;;24.47;32.23;96009.00;5046361;28;20459;-71
2023/07/03 11:14:31;;;;;;;12.60;7.80;;;;;;;24.75;31.64;96006.00;5046482;28;20441;-70
2023/07/03 11:17:11;;;;;;;10.67;7.00;;;;;;;25.00;31.23;96006.91;5047282;28;20926;-71
2023/07/03 11:19:51;;;;;;;15.93;7.07;;;;;;;24.70;31.27;96011.88;5045777;28;20516;-71
2023/07/03 11:22:31;;;;;;;13.90;7.77;;;;;;;24.74;31.59;96008.88;5047341;28;21247;-70